createdAt,value
2023-03-14T00:00:04.620Z,94.92
2023-03-14T00:01:04.967Z,94.85
2023-03-14T00:02:05.325Z,94.85
2023-03-14T00:03:05.694Z,94.81
2023-03-14T00:04:06.093Z,94.75
2023-03-14T00:05:06.427Z,94.85
2023-03-14T00:06:06.811Z,94.85
2023-03-14T00:07:07.159Z,94.65
2023-03-14T00:08:07.531Z,94.65
2023-03-14T00:09:07.901Z,94.55
2023-03-14T00:10:08.266Z,94.55
2023-03-14T00:11:08.609Z,94.20
2023-03-14T00:12:08.960Z,94.20
2023-03-14T00:13:09.348Z,94.10
2023-03-14T00:14:09.715Z,93.89
2023-03-14T00:15:10.046Z,93.69
2023-03-14T00:16:10.542Z,93.59
2023-03-14T00:17:10.804Z,93.59
2023-03-14T00:18:11.118Z,93.48
2023-03-14T00:19:11.586Z,93.59
2023-03-14T00:20:11.831Z,93.59
2023-03-14T00:21:12.199Z,93.69
2023-03-14T00:22:12.571Z,93.79
2023-03-14T00:23:12.902Z,93.99
2023-03-14T00:24:13.274Z,94.20
2023-03-14T00:25:13.592Z,94.20
2023-03-14T00:26:13.971Z,94.20
2023-03-14T00:27:14.305Z,94.30
2023-03-14T00:28:14.688Z,94.40
2023-03-14T00:29:15.043Z,94.40
2023-03-14T00:30:15.401Z,94.40
2023-03-14T00:31:15.764Z,94.51
2023-03-14T00:32:16.087Z,94.60
2023-03-14T00:33:16.408Z,94.71
2023-03-14T00:34:16.826Z,94.71
2023-03-14T00:35:17.197Z,94.85
2023-03-14T00:36:17.546Z,95.06
2023-03-14T00:37:17.879Z,95.17
2023-03-14T00:38:18.223Z,95.02
2023-03-14T00:39:18.587Z,94.92
2023-03-14T00:40:18.912Z,95.02
2023-03-14T00:41:19.313Z,95.17
2023-03-14T00:42:19.632Z,95.17
2023-03-14T00:43:19.999Z,95.26
2023-03-14T00:44:20.374Z,95.26
2023-03-14T00:45:20.653Z,95.26
2023-03-14T00:46:21.093Z,95.12
2023-03-14T00:47:21.403Z,95.12
2023-03-14T00:48:21.802Z,95.02
2023-03-14T00:49:22.176Z,95.02
2023-03-14T00:50:22.472Z,95.02
2023-03-14T00:51:22.822Z,95.02
2023-03-14T00:52:23.143Z,95.02
2023-03-14T00:53:23.506Z,94.92
2023-03-14T00:54:23.891Z,94.81
2023-03-14T00:55:24.251Z,94.71
2023-03-14T00:56:24.578Z,94.71
2023-03-14T00:57:24.967Z,94.71
2023-03-14T00:58:25.318Z,94.40
2023-03-14T00:59:25.708Z,94.40
2023-03-14T01:00:25.969Z,94.40
2023-03-14T01:01:26.416Z,94.20
2023-03-14T01:02:26.783Z,93.99
2023-03-14T01:03:27.085Z,93.99
2023-03-14T01:04:27.468Z,93.99
2023-03-14T01:05:27.811Z,93.89
2023-03-14T01:06:28.196Z,93.89
2023-03-14T01:07:28.552Z,93.99
2023-03-14T01:08:28.940Z,93.99
2023-03-14T01:09:29.289Z,93.89
2023-03-14T01:10:29.629Z,93.69
2023-03-14T01:11:29.973Z,93.44
2023-03-14T01:12:30.332Z,93.24
2023-03-14T01:13:30.698Z,93.24
2023-03-14T01:14:31.083Z,93.33
2023-03-14T01:15:31.412Z,93.33
2023-03-14T01:16:31.819Z,93.33
2023-03-14T01:17:32.148Z,93.03
2023-03-14T01:18:32.589Z,92.93
2023-03-14T01:19:32.893Z,92.93
2023-03-14T01:20:33.243Z,92.72
2023-03-14T01:21:33.569Z,92.72
2023-03-14T01:22:33.944Z,92.72
2023-03-14T01:23:34.294Z,92.83
2023-03-14T01:24:34.698Z,92.93
2023-03-14T01:25:35.110Z,92.93
2023-03-14T01:26:35.406Z,93.03
2023-03-14T01:27:35.751Z,93.13
2023-03-14T01:28:36.071Z,93.33
2023-03-14T01:29:36.469Z,93.44
2023-03-14T01:30:36.808Z,93.44
2023-03-14T01:31:37.226Z,93.44
2023-03-14T01:32:37.549Z,93.33
2023-03-14T01:33:37.833Z,93.54
2023-03-14T01:34:38.207Z,93.65
2023-03-14T01:35:38.580Z,93.74
2023-03-14T01:36:38.898Z,93.85
2023-03-14T01:37:39.305Z,94.06
2023-03-14T01:38:39.634Z,94.06
2023-03-14T01:39:40.030Z,94.15
2023-03-14T01:40:40.361Z,94.15
2023-03-14T01:41:40.739Z,94.30
2023-03-14T01:42:41.072Z,94.51
2023-03-14T01:43:41.466Z,94.51
2023-03-14T01:44:41.832Z,94.60
2023-03-14T01:45:42.231Z,94.60
2023-03-14T01:46:42.544Z,94.71
2023-03-14T01:47:42.859Z,94.81
2023-03-14T01:48:43.246Z,94.71
2023-03-14T01:49:43.593Z,94.71
2023-03-14T01:50:43.915Z,94.71
2023-03-14T01:51:44.285Z,94.81
2023-03-14T01:52:44.651Z,94.71
2023-03-14T01:53:45.051Z,94.60
2023-03-14T01:54:45.494Z,94.60
2023-03-14T01:55:45.733Z,94.51
2023-03-14T01:56:46.077Z,94.51
2023-03-14T01:57:46.397Z,94.60
2023-03-14T01:58:46.739Z,94.71
2023-03-14T01:59:47.148Z,94.81
2023-03-14T02:00:47.555Z,94.71
2023-03-14T02:01:47.803Z,94.81
2023-03-14T02:02:48.148Z,94.71
2023-03-14T02:03:48.555Z,94.40
2023-03-14T02:04:48.926Z,94.40
2023-03-14T02:05:49.255Z,94.40
2023-03-14T02:06:49.642Z,94.40
2023-03-14T02:07:50.014Z,94.40
2023-03-14T02:08:50.339Z,93.99
2023-03-14T02:09:50.678Z,94.10
2023-03-14T02:10:51.014Z,94.20
2023-03-14T02:11:51.383Z,94.30
2023-03-14T02:12:51.738Z,94.45
2023-03-14T02:13:52.110Z,94.65
2023-03-14T02:14:52.438Z,94.55
2023-03-14T02:15:52.773Z,94.55
2023-03-14T02:16:53.177Z,94.45
2023-03-14T02:17:53.490Z,94.45
2023-03-14T02:18:53.824Z,94.65
2023-03-14T02:19:54.248Z,94.75
2023-03-14T02:20:54.537Z,94.75
2023-03-14T02:21:54.903Z,94.65
2023-03-14T02:22:55.279Z,94.75
2023-03-14T02:23:55.616Z,94.65
2023-03-14T02:24:55.996Z,94.65
2023-03-14T02:25:56.321Z,94.75
2023-03-14T02:26:56.676Z,94.85
2023-03-14T02:27:57.015Z,94.85
2023-03-14T02:28:57.388Z,94.85
2023-03-14T02:29:57.780Z,94.75
2023-03-14T02:30:58.102Z,94.65
2023-03-14T02:31:58.584Z,94.65
2023-03-14T02:32:58.898Z,94.75
2023-03-14T02:33:59.196Z,94.65
2023-03-14T02:34:59.550Z,94.45
2023-03-14T02:36:00.038Z,94.55
2023-03-14T02:37:00.225Z,94.45
2023-03-14T02:38:00.591Z,94.55
2023-03-14T02:39:00.957Z,94.55
2023-03-14T02:40:01.348Z,94.65
2023-03-14T02:41:01.661Z,94.45
2023-03-14T02:42:02.022Z,94.45
2023-03-14T02:43:02.370Z,94.45
2023-03-14T02:44:02.695Z,94.30
2023-03-14T02:45:03.087Z,94.10
2023-03-14T02:46:03.467Z,93.99
2023-03-14T02:47:03.780Z,93.99
2023-03-14T02:48:04.151Z,94.10
2023-03-14T02:49:04.514Z,94.10
2023-03-14T02:50:04.888Z,94.20
2023-03-14T02:51:05.233Z,94.20
2023-03-14T02:52:05.612Z,94.20
2023-03-14T02:53:05.970Z,93.99
2023-03-14T02:54:06.401Z,94.10
2023-03-14T02:55:06.709Z,94.20
2023-03-14T02:56:07.066Z,94.20
2023-03-14T02:57:07.432Z,94.10
2023-03-14T02:58:07.798Z,93.99
2023-03-14T02:59:08.153Z,94.10
2023-03-14T03:00:08.626Z,94.10
2023-03-14T03:01:09.011Z,93.89
2023-03-14T03:02:09.260Z,93.69
2023-03-14T03:03:09.636Z,93.69
2023-03-14T03:04:09.961Z,93.33
2023-03-14T03:05:10.385Z,93.13
2023-03-14T03:06:10.668Z,92.93
2023-03-14T03:07:11.038Z,92.93
2023-03-14T03:08:11.396Z,92.83
2023-03-14T03:09:11.769Z,93.03
2023-03-14T03:10:12.171Z,92.93
2023-03-14T03:11:12.478Z,92.58
2023-03-14T03:12:12.807Z,92.68
2023-03-14T03:13:13.218Z,92.47
2023-03-14T03:14:13.562Z,92.37
2023-03-14T03:15:13.897Z,92.37
2023-03-14T03:16:14.363Z,92.37
2023-03-14T03:17:14.589Z,92.37
2023-03-14T03:18:14.969Z,92.27
2023-03-14T03:19:15.319Z,92.27
2023-03-14T03:20:15.703Z,92.17
2023-03-14T03:21:16.032Z,92.17
2023-03-14T03:22:16.405Z,92.27
2023-03-14T03:23:16.776Z,92.27
2023-03-14T03:24:17.116Z,92.37
2023-03-14T03:25:17.473Z,92.27
2023-03-14T03:26:17.810Z,92.27
2023-03-14T03:27:18.143Z,92.07
2023-03-14T03:28:18.512Z,92.17
2023-03-14T03:29:18.875Z,92.47
2023-03-14T03:30:19.210Z,92.27
2023-03-14T03:31:19.628Z,92.27
2023-03-14T03:32:19.895Z,92.27
2023-03-14T03:33:20.263Z,92.17
2023-03-14T03:34:20.603Z,92.17
2023-03-14T03:35:20.979Z,92.27
2023-03-14T03:36:21.319Z,92.07
2023-03-14T03:37:21.679Z,92.17
2023-03-14T03:38:22.052Z,92.17
2023-03-14T03:39:22.398Z,92.07
2023-03-14T03:40:22.773Z,92.21
2023-03-14T03:41:23.089Z,92.07
2023-03-14T03:42:23.467Z,91.96
2023-03-14T03:43:23.858Z,91.96
2023-03-14T03:44:24.211Z,91.86
2023-03-14T03:45:24.558Z,91.76
2023-03-14T03:46:24.944Z,91.76
2023-03-14T03:47:25.235Z,91.56
2023-03-14T03:48:25.626Z,91.86
2023-03-14T03:49:25.978Z,91.96
2023-03-14T03:50:26.386Z,92.37
2023-03-14T03:51:26.712Z,92.83
2023-03-14T03:52:27.134Z,92.83
2023-03-14T03:53:33.576Z,92.72
2023-03-14T03:54:27.817Z,92.72
2023-03-14T03:55:28.132Z,92.72
2023-03-14T03:56:28.496Z,92.52
2023-03-14T03:57:28.856Z,92.17
2023-03-14T03:58:29.221Z,91.76
2023-03-14T03:59:29.568Z,91.56
2023-03-14T04:00:29.971Z,91.56
2023-03-14T04:01:30.280Z,91.66
2023-03-14T04:02:30.712Z,91.56
2023-03-14T04:03:31.033Z,91.46
2023-03-14T04:04:31.368Z,91.35
2023-03-14T04:05:31.707Z,91.05
2023-03-14T04:06:32.118Z,90.74
2023-03-14T04:07:32.440Z,90.84
2023-03-14T04:08:32.777Z,90.94
2023-03-14T04:09:33.126Z,90.94
2023-03-14T04:10:33.531Z,90.64
2023-03-14T04:11:33.849Z,90.43
2023-03-14T04:12:34.194Z,90.64
2023-03-14T04:13:34.577Z,90.74
2023-03-14T04:14:34.926Z,90.64
2023-03-14T04:15:35.398Z,90.53
2023-03-14T04:16:35.673Z,90.43
2023-03-14T04:17:36.024Z,90.53
2023-03-14T04:18:36.396Z,90.64
2023-03-14T04:19:36.739Z,90.43
2023-03-14T04:20:37.123Z,90.43
2023-03-14T04:21:37.496Z,90.64
2023-03-14T04:22:37.812Z,90.64
2023-03-14T04:23:38.171Z,90.64
2023-03-14T04:24:38.559Z,90.84
2023-03-14T04:25:38.921Z,90.99
2023-03-14T04:26:39.253Z,90.64
2023-03-14T04:27:39.615Z,90.53
2023-03-14T04:28:39.982Z,90.12
2023-03-14T04:29:40.349Z,89.92
2023-03-14T04:30:40.728Z,89.92
2023-03-14T04:31:41.113Z,90.02
2023-03-14T04:32:41.440Z,89.92
2023-03-14T04:33:43.083Z,89.92
2023-03-14T04:34:42.169Z,90.12
2023-03-14T04:35:42.516Z,91.05
2023-03-14T04:36:42.801Z,92.27
2023-03-14T04:37:43.158Z,92.62
2023-03-14T04:38:43.593Z,92.83
2023-03-14T04:39:43.890Z,92.93
2023-03-14T04:40:44.290Z,93.38
2023-03-14T04:41:44.589Z,92.77
2023-03-14T04:42:44.956Z,93.07
2023-03-14T04:43:45.328Z,92.66
2023-03-14T04:44:45.612Z,92.87
2023-03-14T04:45:46.008Z,93.07
2023-03-14T04:46:46.412Z,93.07
2023-03-14T04:47:46.693Z,93.28
2023-03-14T04:48:47.032Z,93.43
2023-03-14T04:49:47.385Z,93.63
2023-03-14T04:50:47.738Z,93.73
2023-03-14T04:51:48.092Z,93.63
2023-03-14T04:52:48.395Z,93.52
2023-03-14T04:53:48.800Z,93.63
2023-03-14T04:54:49.252Z,94.65
2023-03-14T04:55:49.511Z,96.84
2023-03-14T04:56:49.842Z,98.74
2023-03-14T04:57:50.212Z,99.99
2023-03-14T04:58:50.508Z,99.99
2023-03-14T04:59:50.864Z,99.99
2023-03-14T05:00:51.351Z,99.99
2023-03-14T05:01:51.606Z,99.99
2023-03-14T05:02:51.991Z,99.99
2023-03-14T05:03:52.259Z,99.99
2023-03-14T05:04:52.603Z,99.99
2023-03-14T05:05:52.976Z,99.99
2023-03-14T05:06:53.288Z,99.99
2023-03-14T05:07:53.644Z,99.99
2023-03-14T05:08:53.981Z,99.99
2023-03-14T05:09:54.297Z,99.99
2023-03-14T05:10:54.654Z,99.99
2023-03-14T05:11:54.982Z,99.99
2023-03-14T05:12:55.349Z,99.99
2023-03-14T05:13:55.714Z,99.99
2023-03-14T05:14:55.811Z,99.99
2023-03-14T05:15:56.210Z,99.99
2023-03-14T05:16:56.433Z,99.99
2023-03-14T05:17:56.701Z,99.99
2023-03-14T05:18:56.984Z,99.99
2023-03-14T05:19:57.267Z,99.99
2023-03-14T05:20:57.574Z,99.99
2023-03-14T05:21:57.832Z,99.99
2023-03-14T05:22:58.128Z,99.99
2023-03-14T05:23:58.407Z,99.99
2023-03-14T05:24:59.236Z,99.99
2023-03-14T05:25:58.989Z,99.99
2023-03-14T05:26:59.259Z,99.99
2023-03-14T05:27:59.520Z,99.99
2023-03-14T05:28:59.786Z,99.99
2023-03-14T05:30:00.080Z,99.99
2023-03-14T05:31:00.358Z,99.99
2023-03-14T05:32:00.669Z,99.99
2023-03-14T05:33:01.006Z,99.99
2023-03-14T05:34:01.213Z,99.99
2023-03-14T05:35:01.477Z,99.99
2023-03-14T05:36:01.824Z,99.99
2023-03-14T05:37:02.033Z,99.99
2023-03-14T05:38:02.293Z,99.99
2023-03-14T05:39:02.573Z,99.99
2023-03-14T05:40:02.855Z,99.99
2023-03-14T05:41:03.177Z,99.99
2023-03-14T05:42:03.464Z,99.99
2023-03-14T05:43:03.746Z,99.99
2023-03-14T05:44:04.051Z,99.99
2023-03-14T05:45:04.337Z,99.99
2023-03-14T05:46:04.718Z,99.99
2023-03-14T05:47:04.926Z,99.99
2023-03-14T05:48:05.230Z,99.99
2023-03-14T05:49:05.412Z,99.99
2023-03-14T05:50:05.581Z,99.99
2023-03-14T05:51:05.878Z,99.99
2023-03-14T05:52:06.025Z,99.99
2023-03-14T05:53:06.195Z,99.99
2023-03-14T05:54:06.392Z,99.99
2023-03-14T05:55:06.676Z,99.99
2023-03-14T05:56:06.857Z,99.99
2023-03-14T05:57:07.011Z,99.99
2023-03-14T05:58:07.206Z,99.99
2023-03-14T05:59:07.381Z,99.99
2023-03-14T06:00:07.601Z,99.99
2023-03-14T06:01:07.772Z,99.99
2023-03-14T06:02:07.958Z,99.99
2023-03-14T06:03:08.205Z,99.99
2023-03-14T06:04:08.252Z,99.99
2023-03-14T06:05:08.541Z,99.99
2023-03-14T06:06:08.842Z,99.99
2023-03-14T06:07:08.998Z,99.99
2023-03-14T06:08:09.174Z,99.99
2023-03-14T06:09:09.355Z,99.99
2023-03-14T06:10:09.524Z,99.99
2023-03-14T06:11:09.707Z,99.99
2023-03-14T06:12:09.869Z,99.99
2023-03-14T06:13:10.061Z,99.99
2023-03-14T06:14:10.233Z,99.99
2023-03-14T06:15:10.400Z,99.99
2023-03-14T06:16:10.631Z,99.99
2023-03-14T06:17:10.771Z,99.99
2023-03-14T06:18:11.075Z,99.99
2023-03-14T06:19:11.231Z,99.99
2023-03-14T06:20:11.454Z,99.99
2023-03-14T06:21:11.611Z,99.99
2023-03-14T06:22:11.787Z,99.99
2023-03-14T06:23:11.941Z,99.99
2023-03-14T06:24:12.252Z,99.99
2023-03-14T06:25:12.423Z,99.99
2023-03-14T06:26:12.600Z,99.99
2023-03-14T06:27:12.785Z,99.91
2023-03-14T06:28:12.978Z,99.70
2023-03-14T06:29:13.161Z,98.47
2023-03-14T06:30:13.304Z,99.09
2023-03-14T06:31:13.558Z,99.60
2023-03-14T06:32:13.780Z,99.70
2023-03-14T06:33:14.036Z,99.91
2023-03-14T06:34:14.356Z,99.80
2023-03-14T06:35:14.522Z,99.99
2023-03-14T06:36:14.751Z,99.99
2023-03-14T06:37:14.886Z,99.99
2023-03-14T06:38:15.071Z,99.91
2023-03-14T06:39:15.227Z,99.91
2023-03-14T06:40:15.420Z,99.99
2023-03-14T06:41:15.747Z,99.99
2023-03-14T06:42:16.019Z,99.99
2023-03-14T06:43:16.209Z,99.99
2023-03-14T06:44:16.357Z,99.99
2023-03-14T06:45:16.532Z,99.70
2023-03-14T06:46:16.827Z,99.70
2023-03-14T06:47:17.012Z,99.40
2023-03-14T06:48:17.180Z,98.99
2023-03-14T06:49:17.342Z,98.37
2023-03-14T06:50:17.531Z,98.68
2023-03-14T06:51:17.733Z,97.96
2023-03-14T06:52:18.025Z,96.94
2023-03-14T06:53:18.174Z,96.63
2023-03-14T06:54:18.477Z,96.94
2023-03-14T06:55:20.665Z,96.01
2023-03-14T06:56:18.858Z,95.81
2023-03-14T06:57:19.045Z,96.12
2023-03-14T06:58:19.243Z,96.32
2023-03-14T06:59:19.405Z,96.32
2023-03-14T07:00:19.556Z,96.42
2023-03-14T07:01:19.805Z,96.22
2023-03-14T07:02:23.143Z,96.42
2023-03-14T07:03:20.091Z,96.01
2023-03-14T07:04:20.289Z,95.81
2023-03-14T07:05:20.430Z,94.95
2023-03-14T07:06:20.617Z,95.29
2023-03-14T07:07:20.804Z,95.36
2023-03-14T07:08:20.960Z,96.12
2023-03-14T07:09:21.116Z,95.46
2023-03-14T07:10:21.287Z,94.54
2023-03-14T07:11:21.464Z,94.95
2023-03-14T07:12:21.632Z,95.36
2023-03-14T07:13:21.804Z,95.25
2023-03-14T07:14:22.095Z,95.05
2023-03-14T07:15:22.164Z,94.43
2023-03-14T07:16:22.503Z,94.54
2023-03-14T07:17:22.557Z,94.12
2023-03-14T07:18:22.719Z,94.23
2023-03-14T07:19:22.915Z,93.98
2023-03-14T07:20:23.249Z,94.39
2023-03-14T07:21:23.413Z,94.33
2023-03-14T07:22:23.705Z,94.74
2023-03-14T07:23:23.881Z,95.05
2023-03-14T07:24:24.162Z,95.15
2023-03-14T07:25:24.368Z,95.76
2023-03-14T07:26:24.545Z,96.17
2023-03-14T07:27:24.718Z,96.17
2023-03-14T07:28:24.921Z,96.38
2023-03-14T07:29:25.202Z,96.17
2023-03-14T07:30:25.382Z,96.28
2023-03-14T07:31:25.642Z,96.17
2023-03-14T07:32:25.917Z,96.07
2023-03-14T07:33:26.037Z,96.48
2023-03-14T07:34:26.208Z,96.48
2023-03-14T07:35:26.368Z,96.48
2023-03-14T07:36:26.699Z,96.69
2023-03-14T07:37:26.854Z,96.89
2023-03-14T07:38:27.024Z,96.94
2023-03-14T07:39:27.177Z,97.04
2023-03-14T07:40:27.488Z,97.45
2023-03-14T07:41:27.602Z,97.24
2023-03-14T07:42:27.739Z,97.04
2023-03-14T07:43:27.917Z,96.94
2023-03-14T07:44:28.202Z,96.53
2023-03-14T07:45:28.554Z,96.83
2023-03-14T07:46:28.841Z,96.12
2023-03-14T07:47:28.968Z,96.01
2023-03-14T07:48:29.146Z,96.01
2023-03-14T07:49:29.319Z,96.22
2023-03-14T07:50:29.491Z,95.76
2023-03-14T07:51:29.682Z,95.46
2023-03-14T07:52:29.832Z,95.46
2023-03-14T07:53:30.047Z,95.66
2023-03-14T07:54:30.189Z,95.56
2023-03-14T07:55:30.361Z,95.36
2023-03-14T07:56:30.532Z,95.46
2023-03-14T07:57:30.839Z,94.95
2023-03-14T07:58:31.024Z,94.80
2023-03-14T07:59:31.181Z,94.70
2023-03-14T08:00:31.343Z,94.59
2023-03-14T08:01:31.582Z,94.49
2023-03-14T08:02:31.754Z,94.59
2023-03-14T08:03:31.899Z,94.55
2023-03-14T08:04:32.060Z,94.85
2023-03-14T08:05:32.243Z,94.34
2023-03-14T08:06:32.456Z,94.55
2023-03-14T08:07:32.580Z,94.49
2023-03-14T08:08:32.740Z,94.49
2023-03-14T08:09:32.906Z,94.08
2023-03-14T08:10:33.106Z,94.39
2023-03-14T08:11:33.279Z,94.80
2023-03-14T08:12:33.429Z,94.49
2023-03-14T08:13:33.602Z,94.29
2023-03-14T08:14:33.764Z,94.49
2023-03-14T08:15:34.052Z,94.49
2023-03-14T08:16:34.314Z,94.59
2023-03-14T08:17:34.525Z,94.90
2023-03-14T08:18:34.696Z,95.06
2023-03-14T08:19:34.860Z,94.65
2023-03-14T08:20:35.035Z,94.65
2023-03-14T08:21:35.202Z,94.34
2023-03-14T08:22:35.442Z,94.65
2023-03-14T08:23:35.549Z,94.65
2023-03-14T08:24:35.733Z,94.45
2023-03-14T08:25:35.927Z,94.55
2023-03-14T08:26:36.098Z,94.34
2023-03-14T08:27:36.335Z,94.34
2023-03-14T08:28:36.528Z,94.75
2023-03-14T08:29:36.718Z,94.55
2023-03-14T08:30:36.888Z,94.96
2023-03-14T08:31:37.290Z,94.75
2023-03-14T08:32:37.279Z,94.45
2023-03-14T08:33:37.450Z,94.55
2023-03-14T08:34:37.589Z,94.85
2023-03-14T08:35:37.772Z,94.96
2023-03-14T08:36:38.152Z,94.75
2023-03-14T08:37:38.389Z,94.96
2023-03-14T08:38:38.542Z,95.37
2023-03-14T08:39:38.711Z,95.78
2023-03-14T08:40:38.879Z,95.57
2023-03-14T08:41:39.072Z,96.49
2023-03-14T08:42:39.360Z,96.70
2023-03-14T08:43:39.525Z,96.74
2023-03-14T08:44:39.730Z,97.05
2023-03-14T08:45:39.851Z,97.25
2023-03-14T08:46:40.135Z,97.56
2023-03-14T08:47:40.212Z,97.87
2023-03-14T08:48:40.374Z,98.28
2023-03-14T08:49:40.564Z,98.07
2023-03-14T08:50:40.744Z,98.18
2023-03-14T08:51:40.946Z,98.58
2023-03-14T08:52:41.163Z,98.38
2023-03-14T08:53:41.287Z,98.58
2023-03-14T08:54:41.462Z,98.49
2023-03-14T08:55:41.624Z,98.07
2023-03-14T08:56:41.818Z,97.97
2023-03-14T08:57:41.973Z,97.46
2023-03-14T08:58:42.146Z,97.87
2023-03-14T08:59:42.317Z,98.07
2023-03-14T09:00:42.602Z,97.66
2023-03-14T09:01:42.724Z,97.97
2023-03-14T09:02:42.866Z,98.07
2023-03-14T09:03:43.141Z,97.97
2023-03-14T09:04:43.222Z,97.77
2023-03-14T09:05:43.369Z,98.07
2023-03-14T09:06:43.544Z,98.49
2023-03-14T09:07:43.856Z,98.18
2023-03-14T09:08:44.017Z,97.87
2023-03-14T09:09:44.346Z,98.07
2023-03-14T09:10:44.515Z,97.77
2023-03-14T09:11:44.710Z,98.07
2023-03-14T09:12:44.896Z,98.18
2023-03-14T09:13:45.086Z,98.49
2023-03-14T09:14:45.355Z,98.38
2023-03-14T09:15:45.551Z,98.58
2023-03-14T09:16:45.817Z,99.20
2023-03-14T09:17:45.904Z,99.41
2023-03-14T09:18:46.068Z,99.91
2023-03-14T09:19:46.240Z,99.76
2023-03-14T09:20:46.408Z,99.99
2023-03-14T09:21:46.580Z,99.41
2023-03-14T09:22:46.763Z,99.30
2023-03-14T09:23:46.978Z,99.61
2023-03-14T09:24:47.079Z,99.51
2023-03-14T09:25:47.260Z,99.20
2023-03-14T09:26:47.609Z,99.71
2023-03-14T09:27:47.712Z,99.99
2023-03-14T09:28:47.886Z,99.99
2023-03-14T09:29:48.073Z,99.99
2023-03-14T09:30:48.224Z,99.99
2023-03-14T09:31:48.450Z,99.99
2023-03-14T09:32:48.645Z,99.99
2023-03-14T09:33:48.895Z,99.99
2023-03-14T09:34:49.073Z,99.99
2023-03-14T09:35:49.348Z,99.99
2023-03-14T09:36:50.178Z,99.99
2023-03-14T09:37:49.827Z,99.99
2023-03-14T09:38:50.009Z,99.99
2023-03-14T09:39:50.316Z,99.99
2023-03-14T09:40:50.457Z,99.99
2023-03-14T09:41:50.686Z,99.99
2023-03-14T09:42:50.938Z,99.01
2023-03-14T09:43:51.129Z,99.49
2023-03-14T09:44:51.298Z,99.99
2023-03-14T09:45:51.527Z,99.99
2023-03-14T09:46:51.660Z,99.99
2023-03-14T09:47:59.218Z,99.99
2023-03-14T09:48:52.006Z,99.99
2023-03-14T09:49:52.193Z,99.99
2023-03-14T09:50:52.355Z,99.99
2023-03-14T09:51:52.552Z,99.99
2023-03-14T09:52:52.724Z,99.99
2023-03-14T09:53:52.891Z,99.99
2023-03-14T09:54:53.070Z,99.99
2023-03-14T09:55:53.254Z,99.99
2023-03-14T09:56:53.459Z,99.99
2023-03-14T09:57:53.599Z,99.99
2023-03-14T09:58:53.775Z,99.99
2023-03-14T09:59:53.946Z,99.99
2023-03-14T10:00:54.175Z,99.99
2023-03-14T10:01:54.428Z,99.99
2023-03-14T10:02:54.473Z,99.99
2023-03-14T10:03:54.708Z,99.99
2023-03-14T10:04:54.813Z,99.99
2023-03-14T10:05:54.997Z,99.99
2023-03-14T10:06:55.215Z,99.99
2023-03-14T10:07:55.472Z,99.99
2023-03-14T10:08:55.627Z,99.99
2023-03-14T10:09:55.814Z,99.99
2023-03-14T10:10:56.010Z,99.99
2023-03-14T10:11:56.201Z,99.99
2023-03-14T10:12:56.597Z,99.99
2023-03-14T10:13:56.653Z,99.99
2023-03-14T10:14:56.803Z,99.99
2023-03-14T10:15:56.995Z,99.99
2023-03-14T10:16:57.201Z,99.99
2023-03-14T10:17:57.459Z,99.99
2023-03-14T10:18:57.634Z,99.99
2023-03-14T10:19:57.832Z,99.99
2023-03-14T10:20:58.110Z,99.99
2023-03-14T10:21:58.294Z,99.99
2023-03-14T10:22:58.493Z,99.99
2023-03-14T10:23:58.752Z,99.99
2023-03-14T10:24:58.938Z,99.99
2023-03-14T10:25:59.114Z,99.99
2023-03-14T10:26:59.317Z,99.99
2023-03-14T10:27:59.584Z,99.99
2023-03-14T10:28:59.762Z,99.99
2023-03-14T10:30:00.094Z,99.99
2023-03-14T10:31:00.536Z,99.99
2023-03-14T10:32:00.694Z,99.99
2023-03-14T10:33:00.995Z,99.99
2023-03-14T10:34:01.132Z,99.99
2023-03-14T10:35:01.325Z,99.99
2023-03-14T10:36:01.526Z,99.99
2023-03-14T10:37:01.691Z,99.99
2023-03-14T10:38:01.853Z,99.99
2023-03-14T10:39:02.010Z,99.99
2023-03-14T10:40:02.186Z,99.99
2023-03-14T10:41:02.374Z,99.99
2023-03-14T10:42:02.591Z,99.99
2023-03-14T10:43:02.842Z,99.99
2023-03-14T10:44:03.042Z,99.99
2023-03-14T10:45:03.256Z,99.99
2023-03-14T10:46:03.384Z,99.99
2023-03-14T10:47:03.569Z,99.99
2023-03-14T10:48:05.210Z,99.99
2023-03-14T10:49:03.928Z,99.99
2023-03-14T10:50:04.108Z,99.99
2023-03-14T10:51:04.276Z,99.99
2023-03-14T10:52:04.475Z,99.99
2023-03-14T10:53:04.775Z,99.99
2023-03-14T10:54:05.035Z,99.99
2023-03-14T10:55:05.215Z,99.99
2023-03-14T10:56:05.389Z,99.56
2023-03-14T10:57:05.590Z,99.99
2023-03-14T10:58:05.754Z,99.46
2023-03-14T10:59:05.945Z,99.15
2023-03-14T11:00:06.238Z,99.56
2023-03-14T11:01:06.501Z,98.32
2023-03-14T11:02:06.625Z,98.63
2023-03-14T11:03:06.769Z,99.41
2023-03-14T11:04:06.950Z,99.82
2023-03-14T11:05:07.264Z,99.82
2023-03-14T11:06:07.412Z,99.99
2023-03-14T11:07:07.610Z,99.99
2023-03-14T11:08:08.876Z,99.99
2023-03-14T11:09:08.156Z,99.99
2023-03-14T11:10:08.238Z,99.99
2023-03-14T11:11:08.392Z,99.99
2023-03-14T11:12:08.583Z,99.62
2023-03-14T11:13:08.765Z,99.52
2023-03-14T11:14:08.919Z,99.66
2023-03-14T11:15:09.102Z,99.35
2023-03-14T11:16:09.323Z,99.46
2023-03-14T11:17:09.477Z,99.66
2023-03-14T11:18:09.747Z,99.56
2023-03-14T11:19:10.013Z,99.98
2023-03-14T11:20:10.114Z,99.87
2023-03-14T11:21:10.285Z,99.77
2023-03-14T11:22:10.476Z,99.35
2023-03-14T11:23:10.783Z,99.04
2023-03-14T11:24:10.968Z,98.94
2023-03-14T11:25:11.130Z,99.15
2023-03-14T11:26:11.301Z,99.31
2023-03-14T11:27:11.516Z,98.73
2023-03-14T11:28:11.662Z,98.69
2023-03-14T11:29:11.834Z,98.58
2023-03-14T11:30:12.062Z,98.58
2023-03-14T11:31:12.248Z,98.38
2023-03-14T11:32:12.388Z,97.75
2023-03-14T11:33:12.683Z,98.02
2023-03-14T11:34:12.838Z,98.22
2023-03-14T11:35:13.139Z,98.33
2023-03-14T11:36:13.473Z,97.50
2023-03-14T11:37:13.617Z,96.67
2023-03-14T11:38:13.797Z,95.95
2023-03-14T11:39:13.954Z,95.32
2023-03-14T11:40:14.198Z,95.22
2023-03-14T11:41:14.335Z,95.95
2023-03-14T11:42:14.500Z,95.43
2023-03-14T11:43:14.688Z,95.84
2023-03-14T11:44:14.852Z,94.29
2023-03-14T11:45:15.049Z,94.29
2023-03-14T11:46:15.384Z,94.39
2023-03-14T11:47:15.662Z,93.66
2023-03-14T11:48:15.908Z,93.66
2023-03-14T11:49:16.113Z,92.94
2023-03-14T11:50:16.272Z,92.53
2023-03-14T11:51:16.456Z,92.84
2023-03-14T11:52:17.032Z,93.98
2023-03-14T11:53:16.796Z,94.08
2023-03-14T11:54:16.989Z,93.87
2023-03-14T11:55:17.156Z,93.04
2023-03-14T11:56:17.583Z,92.63
2023-03-14T11:57:17.547Z,91.80
2023-03-14T11:58:17.806Z,92.28
2023-03-14T11:59:17.856Z,91.76
2023-03-14T12:00:18.052Z,91.14
2023-03-14T12:01:18.878Z,91.45
2023-03-14T12:02:18.555Z,91.55
2023-03-14T12:03:18.677Z,91.97
2023-03-14T12:04:18.942Z,91.66
2023-03-14T12:05:19.090Z,92.18
2023-03-14T12:06:19.233Z,91.24
2023-03-14T12:07:19.833Z,91.03
2023-03-14T12:08:19.588Z,91.14
2023-03-14T12:09:19.775Z,91.86
2023-03-14T12:10:20.019Z,92.44
2023-03-14T12:11:20.124Z,91.76
2023-03-14T12:12:20.363Z,91.35
2023-03-14T12:13:20.509Z,91.61
2023-03-14T12:14:20.677Z,91.51
2023-03-14T12:15:20.960Z,91.72
2023-03-14T12:16:21.817Z,91.51
2023-03-14T12:17:21.454Z,91.30
2023-03-14T12:18:21.630Z,91.41
2023-03-14T12:19:21.796Z,90.74
2023-03-14T12:20:21.986Z,90.06
2023-03-14T12:21:22.150Z,90.44
2023-03-14T12:22:22.363Z,90.44
2023-03-14T12:23:22.518Z,89.96
2023-03-14T12:24:22.711Z,90.16
2023-03-14T12:25:22.865Z,89.61
2023-03-14T12:26:23.305Z,89.71
2023-03-14T12:27:23.258Z,90.12
2023-03-14T12:28:23.390Z,90.12
2023-03-14T12:29:23.586Z,89.65
2023-03-14T12:30:23.755Z,90.12
2023-03-14T12:31:23.952Z,89.96
2023-03-14T12:32:24.166Z,90.02
2023-03-14T12:33:24.294Z,90.53
2023-03-14T12:34:24.455Z,91.05
2023-03-14T12:35:24.666Z,91.05
2023-03-14T12:36:24.816Z,90.74
2023-03-14T12:37:25.022Z,91.47
2023-03-14T12:38:25.179Z,91.05
2023-03-14T12:39:25.351Z,90.64
2023-03-14T12:40:25.530Z,90.95
2023-03-14T12:41:25.744Z,90.74
2023-03-14T12:42:29.701Z,91.16
2023-03-14T12:43:26.189Z,91.78
2023-03-14T12:44:26.359Z,93.23
2023-03-14T12:45:26.544Z,93.23
2023-03-14T12:46:26.796Z,93.12
2023-03-14T12:47:27.033Z,92.71
2023-03-14T12:48:27.173Z,92.81
2023-03-14T12:49:27.351Z,91.57
2023-03-14T12:50:27.530Z,90.74
2023-03-14T12:51:27.727Z,90.84
2023-03-14T12:52:27.890Z,89.61
2023-03-14T12:53:28.070Z,88.46
2023-03-14T12:54:28.556Z,87.18
2023-03-14T12:55:28.532Z,85.32